Accueil
METAR-TAF:

METAR-TAF

Aéroports :

Mar del Plata, Argentine

Aéroport Astor Piazzolla de Mar del Plata

latitude: 37-56S, longitude: 057-35W, altitude: 18 m

Observation

Le bulletin a été fait il y a 13 minutes, à 03:00 UTC
Vent 12 kt de nord-est
Température 18°C
Humidité 83%
Pression 1021 hPa
Visibilité: 9000 m
Nuages épars à une hauteur de 1500 ft
Ciel couvert à une hauteur de 6000 ft
pluie faible

METAR: SAZM 250300Z 05012KT 9000 -RA SCT015 OVC060 18/15 Q1021

Heure: 00:13 (03:13 UTC)

Prévision

Le bulletin a été fait il y a 4 heures et 13 minutes, à 23:00 UTC
Prévision valable du 25 à 00 UTC au 25 à 24 UTC
Vent 10 kt de est/nord-est
Visibilité 10 km ou plus
Nuages épars à une hauteur de 2000 ft
Nuages fragmentés à une hauteur de 10000 ft
Ciel couvert à une hauteur de 20000 ft
Evoluant progressivement
du 25 à 02 UTC au 25 à 05 UTC
Visibilité: 6000 m
Nuages épars à une hauteur de 1500 ft
Ciel couvert à une hauteur de 5000 ft
pluie faible, bruine
Temporairement
du 25 à 08 UTC au 25 à 12 UTC
Visibilité: 4000 m
Nuages épars à une hauteur de 600 ft
Nuages fragmentés à une hauteur de 1500 ft
Quelques nuages à une hauteur de 4000 ft, Cumulonimbus.
orage, pluie
Evoluant progressivement
du 25 à 12 UTC au 25 à 14 UTC
Visibilité: 8000 m
Nuages épars à une hauteur de 800 ft
Nuages fragmentés à une hauteur de 1500 ft
Evoluant progressivement
du 25 à 16 UTC au 25 à 19 UTC
Vent 5 kt de sud-est
Visibilité 10 km ou plus
pas de nuages en-dessous de 1500 mètres et pas de cumulonimbus.
Evoluant progressivement
du 25 à 02 UTC au 25 à 05 UTC
Vent 5 kt de nord-est
Nuages épars à une hauteur de 3000 ft
Evoluant progressivement
du 25 à 08 UTC au 25 à 10 UTC
Nuages épars à une hauteur de 1500 ft
Evoluant progressivement
du 25 à 12 UTC au 25 à 14 UTC
Vent 15 kt de nord/nord-est
Evoluant progressivement
du 25 à 16 UTC au 25 à 18 UTC
Visibilité 10 km ou plus
pas de nuages en-dessous de 1500 mètres et pas de cumulonimbus.

TAF: SAZM 242300Z 2500/2524 07010KT 9999 SCT020 BKN100 OVC200 TX22/2518Z TN13/2509Z BECMG 2502/2505 6000 -RADZ SCT015 OVC050 TEMPO 2508/2512 4000 TSRA SCT006 BKN015 FEW040CB BECMG 2512/2514 8000 SCT008 BKN015 BECMG 2516/2519 9999 SCT025 SAZN 242300Z 2500/2524 14005KT CAVOK TX22/2518Z TN06/2509Z BECMG 2502/2505 05005KT SCT030 BECMG 2508/2510 SCT015 BECMG 2512/2514 02015KT BECMG 2516/2518 CAVOK

Observations et prévisions météorologiques de plus de 4000 aéroports (messages METAR et TAF).

Les stations disponibles sont représentées par des disques jaunes et rouges sur la carte.

Passer la souris dessus pour voir le nom de la station.

Cliquer dessus pour voir les observations et prévisions météorologiques.

Pour changer de carte: cliquez sur les boutons verts avec une croix noire pour zoomer, sur le bouton vert avec un tiret pour effectuer un zoom arrière, ou sur les flèches vertes pour les cartes adjacentes.


METAR-TAF: